sensor_id;sensor_type;location;lat;lon;timestamp;temperature;humidity
21635;DHT22;10979;48.306;9.830;2022-09-09T00:04:31;9.40;99.90
21635;DHT22;10979;48.306;9.830;2022-09-09T00:09:50;9.30;99.90
21635;DHT22;10979;48.306;9.830;2022-09-09T00:12:57;9.30;99.90
21635;DHT22;10979;48.306;9.830;2022-09-09T00:15:20;9.30;99.90
21635;DHT22;10979;48.306;9.830;2022-09-09T00:20:29;9.20;99.90
21635;DHT22;10979;48.306;9.830;2022-09-09T00:23:05;9.30;99.90
21635;DHT22;10979;48.306;9.830;2022-09-09T00:25:46;9.40;99.90
21635;DHT22;10979;48.306;9.830;2022-09-09T00:28:25;9.60;99.90
21635;DHT22;10979;48.306;9.830;2022-09-09T00:30:52;9.10;99.90
21635;DHT22;10979;48.306;9.830;2022-09-09T00:33:20;9.00;99.90
21635;DHT22;10979;48.306;9.830;2022-09-09T00:35:58;9.30;99.90
21635;DHT22;10979;48.306;9.830;2022-09-09T00:38:36;9.40;99.90
21635;DHT22;10979;48.306;9.830;2022-09-09T00:41:14;9.10;99.90
21635;DHT22;10979;48.306;9.830;2022-09-09T00:43:52;9.20;99.90
21635;DHT22;10979;48.306;9.830;2022-09-09T00:47:01;9.00;99.90
21635;DHT22;10979;48.306;9.830;2022-09-09T00:52:32;8.90;99.90
21635;DHT22;10979;48.306;9.830;2022-09-09T00:55:19;8.90;99.90
21635;DHT22;10979;48.306;9.830;2022-09-09T00:57:51;9.00;99.90
21635;DHT22;10979;48.306;9.830;2022-09-09T01:03:02;8.90;99.90
21635;DHT22;10979;48.306;9.830;2022-09-09T01:08:42;9.00;99.90
21635;DHT22;10979;48.306;9.830;2022-09-09T01:11:27;9.00;99.90
21635;DHT22;10979;48.306;9.830;2022-09-09T01:14:05;9.00;99.90
21635;DHT22;10979;48.306;9.830;2022-09-09T01:16:36;8.80;99.90
21635;DHT22;10979;48.306;9.830;2022-09-09T01:19:03;8.70;99.90
21635;DHT22;10979;48.306;9.830;2022-09-09T01:27:32;8.70;99.90
21635;DHT22;10979;48.306;9.830;2022-09-09T01:29:59;8.60;99.90
21635;DHT22;10979;48.306;9.830;2022-09-09T01:32:49;8.50;99.90
21635;DHT22;10979;48.306;9.830;2022-09-09T01:37:56;8.70;99.90
21635;DHT22;10979;48.306;9.830;2022-09-09T01:40:22;8.60;99.90
21635;DHT22;10979;48.306;9.830;2022-09-09T01:42:48;8.70;99.90
21635;DHT22;10979;48.306;9.830;2022-09-09T01:45:14;8.40;99.90
21635;DHT22;10979;48.306;9.830;2022-09-09T01:47:40;8.50;99.90
21635;DHT22;10979;48.306;9.830;2022-09-09T01:50:08;8.50;99.90
21635;DHT22;10979;48.306;9.830;2022-09-09T01:52:36;8.50;99.90
21635;DHT22;10979;48.306;9.830;2022-09-09T01:55:03;8.40;99.90
21635;DHT22;10979;48.306;9.830;2022-09-09T01:57:41;8.50;99.90
21635;DHT22;10979;48.306;9.830;2022-09-09T02:00:13;8.40;99.90
21635;DHT22;10979;48.306;9.830;2022-09-09T02:05:38;8.50;99.90
21635;DHT22;10979;48.306;9.830;2022-09-09T02:08:07;8.50;99.90
21635;DHT22;10979;48.306;9.830;2022-09-09T02:13:16;8.60;99.90
21635;DHT22;10979;48.306;9.830;2022-09-09T02:16:01;8.60;99.90
21635;DHT22;10979;48.306;9.830;2022-09-09T02:18:32;8.70;99.90
21635;DHT22;10979;48.306;9.830;2022-09-09T02:21:00;8.70;99.90
21635;DHT22;10979;48.306;9.830;2022-09-09T02:23:28;8.70;99.90
21635;DHT22;10979;48.306;9.830;2022-09-09T02:25:56;8.60;99.90
21635;DHT22;10979;48.306;9.830;2022-09-09T02:28:25;8.60;99.90
21635;DHT22;10979;48.306;9.830;2022-09-09T02:30:52;8.50;99.90
21635;DHT22;10979;48.306;9.830;2022-09-09T02:33:24;8.50;99.90
21635;DHT22;10979;48.306;9.830;2022-09-09T02:35:52;8.50;99.90
21635;DHT22;10979;48.306;9.830;2022-09-09T02:38:20;8.50;99.90
21635;DHT22;10979;48.306;9.830;2022-09-09T02:40:46;8.50;99.90
21635;DHT22;10979;48.306;9.830;2022-09-09T02:43:14;8.70;99.90
21635;DHT22;10979;48.306;9.830;2022-09-09T02:45:48;8.70;99.90
21635;DHT22;10979;48.306;9.830;2022-09-09T02:53:53;9.40;99.90
21635;DHT22;10979;48.306;9.830;2022-09-09T02:56:23;9.20;99.90
21635;DHT22;10979;48.306;9.830;2022-09-09T02:58:50;9.20;99.90
21635;DHT22;10979;48.306;9.830;2022-09-09T03:01:17;9.50;99.90
21635;DHT22;10979;48.306;9.830;2022-09-09T03:03:42;9.40;99.90
21635;DHT22;10979;48.306;9.830;2022-09-09T03:06:09;9.40;99.90
21635;DHT22;10979;48.306;9.830;2022-09-09T03:08:37;9.70;99.90
21635;DHT22;10979;48.306;9.830;2022-09-09T03:11:03;10.00;99.90
21635;DHT22;10979;48.306;9.830;2022-09-09T03:13:28;10.00;99.90
21635;DHT22;10979;48.306;9.830;2022-09-09T03:15:54;10.00;99.90
21635;DHT22;10979;48.306;9.830;2022-09-09T03:18:20;9.90;99.90
21635;DHT22;10979;48.306;9.830;2022-09-09T03:20:46;10.00;99.90
21635;DHT22;10979;48.306;9.830;2022-09-09T03:23:14;10.00;99.90
21635;DHT22;10979;48.306;9.830;2022-09-09T03:25:39;10.20;99.90
21635;DHT22;10979;48.306;9.830;2022-09-09T03:28:11;10.50;99.90
21635;DHT22;10979;48.306;9.830;2022-09-09T03:30:37;10.40;99.90
21635;DHT22;10979;48.306;9.830;2022-09-09T03:33:03;10.40;99.90
21635;DHT22;10979;48.306;9.830;2022-09-09T03:35:29;10.40;99.90
21635;DHT22;10979;48.306;9.830;2022-09-09T03:37:55;10.70;99.90
21635;DHT22;10979;48.306;9.830;2022-09-09T03:40:21;10.60;99.90
21635;DHT22;10979;48.306;9.830;2022-09-09T03:42:46;10.60;99.90
21635;DHT22;10979;48.306;9.830;2022-09-09T03:45:13;10.50;99.90
21635;DHT22;10979;48.306;9.830;2022-09-09T03:47:38;10.40;99.90
21635;DHT22;10979;48.306;9.830;2022-09-09T03:50:05;10.50;99.90
21635;DHT22;10979;48.306;9.830;2022-09-09T03:52:38;10.70;99.90
21635;DHT22;10979;48.306;9.830;2022-09-09T03:55:04;10.70;99.90
21635;DHT22;10979;48.306;9.830;2022-09-09T03:57:31;10.60;99.90
21635;DHT22;10979;48.306;9.830;2022-09-09T03:59:57;10.70;99.90
21635;DHT22;10979;48.306;9.830;2022-09-09T04:02:23;10.70;99.90
21635;DHT22;10979;48.306;9.830;2022-09-09T04:04:49;10.60;99.90
21635;DHT22;10979;48.306;9.830;2022-09-09T04:07:14;10.70;99.90
21635;DHT22;10979;48.306;9.830;2022-09-09T04:09:40;10.70;99.90
21635;DHT22;10979;48.306;9.830;2022-09-09T04:12:05;10.80;99.90
21635;DHT22;10979;48.306;9.830;2022-09-09T04:14:32;10.80;99.90
21635;DHT22;10979;48.306;9.830;2022-09-09T04:16:57;11.10;99.90
21635;DHT22;10979;48.306;9.830;2022-09-09T04:19:25;11.00;99.90
21635;DHT22;10979;48.306;9.830;2022-09-09T04:21:50;11.00;99.90
21635;DHT22;10979;48.306;9.830;2022-09-09T04:24:17;10.80;99.90
21635;DHT22;10979;48.306;9.830;2022-09-09T04:26:43;10.80;99.90
21635;DHT22;10979;48.306;9.830;2022-09-09T04:29:08;11.00;99.90
21635;DHT22;10979;48.306;9.830;2022-09-09T04:31:34;11.10;99.90
21635;DHT22;10979;48.306;9.830;2022-09-09T04:34:00;11.20;99.90
21635;DHT22;10979;48.306;9.830;2022-09-09T04:36:31;11.10;99.90
21635;DHT22;10979;48.306;9.830;2022-09-09T04:38:57;11.00;99.90
21635;DHT22;10979;48.306;9.830;2022-09-09T04:41:23;11.10;99.90
21635;DHT22;10979;48.306;9.830;2022-09-09T04:43:49;11.20;99.90
21635;DHT22;10979;48.306;9.830;2022-09-09T04:46:15;11.10;99.90
21635;DHT22;10979;48.306;9.830;2022-09-09T04:48:42;11.20;99.90
21635;DHT22;10979;48.306;9.830;2022-09-09T04:51:11;11.20;99.90
21635;DHT22;10979;48.306;9.830;2022-09-09T04:53:38;11.20;99.90
21635;DHT22;10979;48.306;9.830;2022-09-09T04:58:31;11.30;99.90
21635;DHT22;10979;48.306;9.830;2022-09-09T05:01:26;11.50;99.90
21635;DHT22;10979;48.306;9.830;2022-09-09T05:03:52;11.40;99.90
21635;DHT22;10979;48.306;9.830;2022-09-09T05:06:20;11.20;99.90
21635;DHT22;10979;48.306;9.830;2022-09-09T05:08:46;11.10;99.90
21635;DHT22;10979;48.306;9.830;2022-09-09T05:11:28;11.10;99.90
21635;DHT22;10979;48.306;9.830;2022-09-09T05:13:54;11.10;99.90
21635;DHT22;10979;48.306;9.830;2022-09-09T05:16:20;11.20;99.90
21635;DHT22;10979;48.306;9.830;2022-09-09T05:18:46;11.20;99.90
21635;DHT22;10979;48.306;9.830;2022-09-09T05:21:13;11.30;99.90
21635;DHT22;10979;48.306;9.830;2022-09-09T05:23:39;11.40;99.90
21635;DHT22;10979;48.306;9.830;2022-09-09T05:26:06;11.50;99.90
21635;DHT22;10979;48.306;9.830;2022-09-09T05:28:34;11.40;99.90
21635;DHT22;10979;48.306;9.830;2022-09-09T05:31:10;11.30;99.90
21635;DHT22;10979;48.306;9.830;2022-09-09T05:33:38;11.40;99.90
21635;DHT22;10979;48.306;9.830;2022-09-09T05:36:08;11.30;99.90
21635;DHT22;10979;48.306;9.830;2022-09-09T05:38:36;11.40;99.90
21635;DHT22;10979;48.306;9.830;2022-09-09T05:41:02;11.40;99.90
21635;DHT22;10979;48.306;9.830;2022-09-09T05:43:28;11.30;99.90
21635;DHT22;10979;48.306;9.830;2022-09-09T05:46:03;11.40;99.90
21635;DHT22;10979;48.306;9.830;2022-09-09T05:48:30;11.60;99.90
21635;DHT22;10979;48.306;9.830;2022-09-09T05:50:58;11.60;99.90
21635;DHT22;10979;48.306;9.830;2022-09-09T05:53:24;11.60;99.90
21635;DHT22;10979;48.306;9.830;2022-09-09T05:55:50;11.70;99.90
21635;DHT22;10979;48.306;9.830;2022-09-09T05:58:16;11.90;99.90
21635;DHT22;10979;48.306;9.830;2022-09-09T06:00:42;12.10;99.90
21635;DHT22;10979;48.306;9.830;2022-09-09T06:03:11;12.10;99.90
21635;DHT22;10979;48.306;9.830;2022-09-09T06:05:36;12.30;99.90
21635;DHT22;10979;48.306;9.830;2022-09-09T06:08:02;12.40;99.90
21635;DHT22;10979;48.306;9.830;2022-09-09T06:10:28;12.40;99.90
21635;DHT22;10979;48.306;9.830;2022-09-09T06:12:54;12.20;99.90
21635;DHT22;10979;48.306;9.830;2022-09-09T06:15:20;12.30;99.90
21635;DHT22;10979;48.306;9.830;2022-09-09T06:17:45;12.40;99.90
21635;DHT22;10979;48.306;9.830;2022-09-09T06:20:11;12.50;99.90
21635;DHT22;10979;48.306;9.830;2022-09-09T06:22:40;12.60;99.90
21635;DHT22;10979;48.306;9.830;2022-09-09T06:25:07;12.90;99.90
21635;DHT22;10979;48.306;9.830;2022-09-09T06:27:33;13.00;99.90
21635;DHT22;10979;48.306;9.830;2022-09-09T06:29:58;13.00;99.90
21635;DHT22;10979;48.306;9.830;2022-09-09T06:32:24;13.10;99.90
21635;DHT22;10979;48.306;9.830;2022-09-09T06:34:50;13.10;99.90
21635;DHT22;10979;48.306;9.830;2022-09-09T06:37:15;13.30;99.90
21635;DHT22;10979;48.306;9.830;2022-09-09T06:39:41;13.60;99.90
21635;DHT22;10979;48.306;9.830;2022-09-09T06:42:07;13.60;99.90
21635;DHT22;10979;48.306;9.830;2022-09-09T06:44:34;13.70;99.90
21635;DHT22;10979;48.306;9.830;2022-09-09T06:47:00;14.20;99.90
21635;DHT22;10979;48.306;9.830;2022-09-09T06:49:25;14.90;99.90
21635;DHT22;10979;48.306;9.830;2022-09-09T06:51:51;17.00;99.90
21635;DHT22;10979;48.306;9.830;2022-09-09T06:54:17;18.90;99.90
21635;DHT22;10979;48.306;9.830;2022-09-09T06:56:43;19.00;99.90
21635;DHT22;10979;48.306;9.830;2022-09-09T06:59:11;17.40;99.90
21635;DHT22;10979;48.306;9.830;2022-09-09T07:01:42;21.00;99.90
21635;DHT22;10979;48.306;9.830;2022-09-09T07:04:12;22.80;99.60
21635;DHT22;10979;48.306;9.830;2022-09-09T07:06:41;23.30;97.00
21635;DHT22;10979;48.306;9.830;2022-09-09T07:09:10;20.80;99.30
21635;DHT22;10979;48.306;9.830;2022-09-09T07:11:47;20.20;99.90
21635;DHT22;10979;48.306;9.830;2022-09-09T07:14:13;21.40;99.90
21635;DHT22;10979;48.306;9.830;2022-09-09T07:16:43;21.40;99.70
21635;DHT22;10979;48.306;9.830;2022-09-09T07:19:10;20.40;99.90
21635;DHT22;10979;48.306;9.830;2022-09-09T07:21:36;18.60;99.90
21635;DHT22;10979;48.306;9.830;2022-09-09T07:24:02;19.30;99.90
21635;DHT22;10979;48.306;9.830;2022-09-09T07:26:30;18.60;99.90
21635;DHT22;10979;48.306;9.830;2022-09-09T07:28:56;21.40;99.60
21635;DHT22;10979;48.306;9.830;2022-09-09T07:31:32;20.00;99.90
21635;DHT22;10979;48.306;9.830;2022-09-09T07:34:01;20.60;99.90
21635;DHT22;10979;48.306;9.830;2022-09-09T07:36:32;21.00;99.10
21635;DHT22;10979;48.306;9.830;2022-09-09T07:39:07;21.00;99.80
21635;DHT22;10979;48.306;9.830;2022-09-09T07:41:34;20.50;99.60
21635;DHT22;10979;48.306;9.830;2022-09-09T07:44:07;21.40;99.60
21635;DHT22;10979;48.306;9.830;2022-09-09T07:46:33;20.10;99.90
21635;DHT22;10979;48.306;9.830;2022-09-09T07:48:59;19.50;99.90
21635;DHT22;10979;48.306;9.830;2022-09-09T07:51:28;18.40;99.90
21635;DHT22;10979;48.306;9.830;2022-09-09T07:53:58;18.70;99.90
21635;DHT22;10979;48.306;9.830;2022-09-09T07:56:25;18.40;99.90
21635;DHT22;10979;48.306;9.830;2022-09-09T07:58:52;18.30;99.90
21635;DHT22;10979;48.306;9.830;2022-09-09T08:01:22;18.00;99.90
21635;DHT22;10979;48.306;9.830;2022-09-09T08:03:54;18.20;99.90
21635;DHT22;10979;48.306;9.830;2022-09-09T08:06:20;18.60;99.90
21635;DHT22;10979;48.306;9.830;2022-09-09T08:08:50;17.90;99.90
21635;DHT22;10979;48.306;9.830;2022-09-09T08:11:16;18.90;99.90
21635;DHT22;10979;48.306;9.830;2022-09-09T08:13:43;20.80;99.90
21635;DHT22;10979;48.306;9.830;2022-09-09T08:16:14;20.20;99.90
21635;DHT22;10979;48.306;9.830;2022-09-09T08:18:40;18.70;99.90
21635;DHT22;10979;48.306;9.830;2022-09-09T08:21:09;18.00;99.90
21635;DHT22;10979;48.306;9.830;2022-09-09T08:23:38;17.60;99.90
21635;DHT22;10979;48.306;9.830;2022-09-09T08:26:15;17.10;99.90
21635;DHT22;10979;48.306;9.830;2022-09-09T08:28:41;17.00;99.90
21635;DHT22;10979;48.306;9.830;2022-09-09T08:31:13;17.30;99.90
21635;DHT22;10979;48.306;9.830;2022-09-09T08:33:40;18.20;99.90
21635;DHT22;10979;48.306;9.830;2022-09-09T08:36:08;20.90;99.90
21635;DHT22;10979;48.306;9.830;2022-09-09T08:38:34;21.10;99.80
21635;DHT22;10979;48.306;9.830;2022-09-09T08:50:29;23.20;95.30
21635;DHT22;10979;48.306;9.830;2022-09-09T08:53:22;22.20;97.30
21635;DHT22;10979;48.306;9.830;2022-09-09T08:56:11;25.20;93.00
21635;DHT22;10979;48.306;9.830;2022-09-09T08:58:45;24.50;93.30
21635;DHT22;10979;48.306;9.830;2022-09-09T09:01:41;24.80;91.80
21635;DHT22;10979;48.306;9.830;2022-09-09T09:06:59;24.50;91.70
21635;DHT22;10979;48.306;9.830;2022-09-09T09:09:46;24.00;91.80
21635;DHT22;10979;48.306;9.830;2022-09-09T09:12:20;23.60;92.00
21635;DHT22;10979;48.306;9.830;2022-09-09T09:14:47;22.20;93.50
21635;DHT22;10979;48.306;9.830;2022-09-09T09:17:21;21.20;95.10
21635;DHT22;10979;48.306;9.830;2022-09-09T09:19:49;22.10;94.80
21635;DHT22;10979;48.306;9.830;2022-09-09T09:22:26;22.60;93.40
21635;DHT22;10979;48.306;9.830;2022-09-09T09:27:34;23.40;92.80
21635;DHT22;10979;48.306;9.830;2022-09-09T09:30:10;23.80;92.00
21635;DHT22;10979;48.306;9.830;2022-09-09T09:32:39;22.50;93.60
21635;DHT22;10979;48.306;9.830;2022-09-09T09:35:11;22.40;94.30
21635;DHT22;10979;48.306;9.830;2022-09-09T09:37:37;23.50;91.80
21635;DHT22;10979;48.306;9.830;2022-09-09T09:40:16;22.80;91.80
21635;DHT22;10979;48.306;9.830;2022-09-09T09:42:54;21.80;92.60
21635;DHT22;10979;48.306;9.830;2022-09-09T09:45:43;21.50;94.50
21635;DHT22;10979;48.306;9.830;2022-09-09T09:48:12;21.90;93.80
21635;DHT22;10979;48.306;9.830;2022-09-09T09:51:11;22.00;92.90
21635;DHT22;10979;48.306;9.830;2022-09-09T09:53:39;21.70;94.20
21635;DHT22;10979;48.306;9.830;2022-09-09T09:56:10;21.30;93.80
21635;DHT22;10979;48.306;9.830;2022-09-09T10:01:26;21.30;94.40
21635;DHT22;10979;48.306;9.830;2022-09-09T10:04:22;21.40;94.30
21635;DHT22;10979;48.306;9.830;2022-09-09T10:06:50;21.40;93.70
21635;DHT22;10979;48.306;9.830;2022-09-09T10:09:27;21.50;92.90
21635;DHT22;10979;48.306;9.830;2022-09-09T10:12:19;21.00;93.20
21635;DHT22;10979;48.306;9.830;2022-09-09T10:14:41;21.10;93.90
21635;DHT22;10979;48.306;9.830;2022-09-09T10:17:20;21.10;92.90
21635;DHT22;10979;48.306;9.830;2022-09-09T10:23:44;21.80;90.40
21635;DHT22;10979;48.306;9.830;2022-09-09T10:26:09;21.60;90.00
21635;DHT22;10979;48.306;9.830;2022-09-09T10:28:52;22.10;90.40
21635;DHT22;10979;48.306;9.830;2022-09-09T10:34:12;22.60;89.60
21635;DHT22;10979;48.306;9.830;2022-09-09T10:36:47;22.70;88.40
21635;DHT22;10979;48.306;9.830;2022-09-09T10:42:05;22.60;89.20
21635;DHT22;10979;48.306;9.830;2022-09-09T10:50:28;22.80;88.30
21635;DHT22;10979;48.306;9.830;2022-09-09T10:53:08;22.20;88.60
21635;DHT22;10979;48.306;9.830;2022-09-09T10:55:48;22.10;88.00
21635;DHT22;10979;48.306;9.830;2022-09-09T10:58:24;22.80;88.00
21635;DHT22;10979;48.306;9.830;2022-09-09T11:00:56;22.90;83.70
21635;DHT22;10979;48.306;9.830;2022-09-09T11:03:26;22.70;82.30
21635;DHT22;10979;48.306;9.830;2022-09-09T11:06:04;21.80;84.60
21635;DHT22;10979;48.306;9.830;2022-09-09T11:08:32;21.50;86.00
21635;DHT22;10979;48.306;9.830;2022-09-09T11:16:34;21.50;85.80
21635;DHT22;10979;48.306;9.830;2022-09-09T11:21:48;22.00;83.80
21635;DHT22;10979;48.306;9.830;2022-09-09T11:24:23;22.80;79.70
21635;DHT22;10979;48.306;9.830;2022-09-09T11:32:29;21.90;82.00
21635;DHT22;10979;48.306;9.830;2022-09-09T11:38:16;22.60;79.10
21635;DHT22;10979;48.306;9.830;2022-09-09T11:40:44;22.90;80.50
21635;DHT22;10979;48.306;9.830;2022-09-09T11:43:40;22.50;78.90
21635;DHT22;10979;48.306;9.830;2022-09-09T11:46:07;21.50;82.40
21635;DHT22;10979;48.306;9.830;2022-09-09T11:48:44;21.50;83.40
21635;DHT22;10979;48.306;9.830;2022-09-09T11:51:27;21.30;83.50
21635;DHT22;10979;48.306;9.830;2022-09-09T11:54:01;21.90;82.60
21635;DHT22;10979;48.306;9.830;2022-09-09T11:56:34;22.00;83.20
21635;DHT22;10979;48.306;9.830;2022-09-09T11:59:05;22.00;81.20
21635;DHT22;10979;48.306;9.830;2022-09-09T12:06:49;20.80;84.10
21635;DHT22;10979;48.306;9.830;2022-09-09T12:11:48;20.60;83.60
21635;DHT22;10979;48.306;9.830;2022-09-09T12:14:44;20.60;85.40
21635;DHT22;10979;48.306;9.830;2022-09-09T12:17:23;20.90;84.00
21635;DHT22;10979;48.306;9.830;2022-09-09T12:25:39;22.30;80.80
21635;DHT22;10979;48.306;9.830;2022-09-09T12:28:16;22.20;78.50
21635;DHT22;10979;48.306;9.830;2022-09-09T12:33:22;21.70;77.90
21635;DHT22;10979;48.306;9.830;2022-09-09T12:35:57;21.00;82.10
21635;DHT22;10979;48.306;9.830;2022-09-09T12:38:32;20.90;81.70
21635;DHT22;10979;48.306;9.830;2022-09-09T12:40:59;21.40;80.60
21635;DHT22;10979;48.306;9.830;2022-09-09T12:43:26;21.30;81.70
21635;DHT22;10979;48.306;9.830;2022-09-09T12:46:00;21.30;82.20
21635;DHT22;10979;48.306;9.830;2022-09-09T12:48:44;21.60;80.10
21635;DHT22;10979;48.306;9.830;2022-09-09T12:51:21;21.60;79.60
21635;DHT22;10979;48.306;9.830;2022-09-09T12:53:51;21.00;81.10
21635;DHT22;10979;48.306;9.830;2022-09-09T12:56:25;20.90;82.10
21635;DHT22;10979;48.306;9.830;2022-09-09T12:58:53;20.70;81.70
21635;DHT22;10979;48.306;9.830;2022-09-09T13:01:31;20.80;82.90
21635;DHT22;10979;48.306;9.830;2022-09-09T13:03:58;21.00;83.30
21635;DHT22;10979;48.306;9.830;2022-09-09T13:06:28;21.20;81.80
21635;DHT22;10979;48.306;9.830;2022-09-09T13:08:55;21.60;80.40
21635;DHT22;10979;48.306;9.830;2022-09-09T13:11:38;21.60;81.50
21635;DHT22;10979;48.306;9.830;2022-09-09T13:14:04;21.90;80.50
21635;DHT22;10979;48.306;9.830;2022-09-09T13:16:34;21.50;77.70
21635;DHT22;10979;48.306;9.830;2022-09-09T13:19:10;21.50;77.60
21635;DHT22;10979;48.306;9.830;2022-09-09T13:21:39;22.10;75.80
21635;DHT22;10979;48.306;9.830;2022-09-09T13:24:21;22.40;73.60
21635;DHT22;10979;48.306;9.830;2022-09-09T13:27:04;22.50;75.80
21635;DHT22;10979;48.306;9.830;2022-09-09T13:29:31;21.90;74.90
21635;DHT22;10979;48.306;9.830;2022-09-09T13:32:05;21.60;75.60
21635;DHT22;10979;48.306;9.830;2022-09-09T13:34:34;21.50;77.10
21635;DHT22;10979;48.306;9.830;2022-09-09T13:37:20;21.30;76.80
21635;DHT22;10979;48.306;9.830;2022-09-09T13:39:52;21.20;74.80
21635;DHT22;10979;48.306;9.830;2022-09-09T13:42:30;21.30;75.90
21635;DHT22;10979;48.306;9.830;2022-09-09T13:44:58;21.30;76.10
21635;DHT22;10979;48.306;9.830;2022-09-09T13:47:35;21.50;76.60
21635;DHT22;10979;48.306;9.830;2022-09-09T13:50:23;21.60;77.20
21635;DHT22;10979;48.306;9.830;2022-09-09T13:52:54;21.20;75.80
21635;DHT22;10979;48.306;9.830;2022-09-09T13:55:24;21.50;76.60
21635;DHT22;10979;48.306;9.830;2022-09-09T13:57:57;21.70;74.70
21635;DHT22;10979;48.306;9.830;2022-09-09T14:00:24;21.30;77.20
21635;DHT22;10979;48.306;9.830;2022-09-09T14:02:50;21.00;76.30
21635;DHT22;10979;48.306;9.830;2022-09-09T14:05:19;21.10;76.50
21635;DHT22;10979;48.306;9.830;2022-09-09T14:07:45;21.50;76.80
21635;DHT22;10979;48.306;9.830;2022-09-09T14:10:11;21.70;76.10
21635;DHT22;10979;48.306;9.830;2022-09-09T14:12:37;21.70;75.30
21635;DHT22;10979;48.306;9.830;2022-09-09T14:15:05;21.90;75.50
21635;DHT22;10979;48.306;9.830;2022-09-09T14:17:31;21.80;76.40
21635;DHT22;10979;48.306;9.830;2022-09-09T14:19:57;22.10;74.80
21635;DHT22;10979;48.306;9.830;2022-09-09T14:22:23;22.50;74.00
21635;DHT22;10979;48.306;9.830;2022-09-09T14:24:49;22.70;73.10
21635;DHT22;10979;48.306;9.830;2022-09-09T14:27:16;22.70;71.20
21635;DHT22;10979;48.306;9.830;2022-09-09T14:29:41;22.30;72.70
21635;DHT22;10979;48.306;9.830;2022-09-09T14:32:09;21.60;75.00
21635;DHT22;10979;48.306;9.830;2022-09-09T14:34:34;21.50;77.90
21635;DHT22;10979;48.306;9.830;2022-09-09T14:37:00;21.90;75.60
21635;DHT22;10979;48.306;9.830;2022-09-09T14:39:26;22.30;75.10
21635;DHT22;10979;48.306;9.830;2022-09-09T14:41:52;22.10;74.50
21635;DHT22;10979;48.306;9.830;2022-09-09T14:44:17;22.00;75.00
21635;DHT22;10979;48.306;9.830;2022-09-09T14:46:43;21.90;75.00
21635;DHT22;10979;48.306;9.830;2022-09-09T14:49:09;21.60;74.30
21635;DHT22;10979;48.306;9.830;2022-09-09T14:51:35;21.60;76.10
21635;DHT22;10979;48.306;9.830;2022-09-09T14:54:01;21.30;74.90
21635;DHT22;10979;48.306;9.830;2022-09-09T14:56:29;22.00;73.80
21635;DHT22;10979;48.306;9.830;2022-09-09T14:58:56;21.80;72.10
21635;DHT22;10979;48.306;9.830;2022-09-09T15:01:23;21.90;72.50
21635;DHT22;10979;48.306;9.830;2022-09-09T15:03:52;22.20;71.60
21635;DHT22;10979;48.306;9.830;2022-09-09T15:06:19;22.60;71.50
21635;DHT22;10979;48.306;9.830;2022-09-09T15:08:46;22.40;70.10
21635;DHT22;10979;48.306;9.830;2022-09-09T15:11:14;22.00;69.60
21635;DHT22;10979;48.306;9.830;2022-09-09T15:13:41;21.80;71.50
21635;DHT22;10979;48.306;9.830;2022-09-09T15:16:09;21.80;69.60
21635;DHT22;10979;48.306;9.830;2022-09-09T15:18:36;22.00;70.90
21635;DHT22;10979;48.306;9.830;2022-09-09T15:21:02;21.90;70.20
21635;DHT22;10979;48.306;9.830;2022-09-09T15:23:32;21.90;70.70
21635;DHT22;10979;48.306;9.830;2022-09-09T15:26:01;21.90;70.70
21635;DHT22;10979;48.306;9.830;2022-09-09T15:28:26;21.90;68.00
21635;DHT22;10979;48.306;9.830;2022-09-09T15:30:53;21.80;69.00
21635;DHT22;10979;48.306;9.830;2022-09-09T15:33:20;21.70;67.80
21635;DHT22;10979;48.306;9.830;2022-09-09T15:35:46;21.60;67.30
21635;DHT22;10979;48.306;9.830;2022-09-09T15:38:13;21.50;69.70
21635;DHT22;10979;48.306;9.830;2022-09-09T15:40:39;21.40;67.80
21635;DHT22;10979;48.306;9.830;2022-09-09T15:43:05;21.40;67.20
21635;DHT22;10979;48.306;9.830;2022-09-09T15:45:32;21.20;67.90
21635;DHT22;10979;48.306;9.830;2022-09-09T15:48:02;21.20;70.10
21635;DHT22;10979;48.306;9.830;2022-09-09T15:50:28;21.20;70.00
21635;DHT22;10979;48.306;9.830;2022-09-09T15:52:55;21.00;70.50
21635;DHT22;10979;48.306;9.830;2022-09-09T15:55:21;20.80;69.10
21635;DHT22;10979;48.306;9.830;2022-09-09T15:57:46;20.60;68.80
21635;DHT22;10979;48.306;9.830;2022-09-09T16:00:12;20.40;70.80
21635;DHT22;10979;48.306;9.830;2022-09-09T16:02:39;20.20;71.80
21635;DHT22;10979;48.306;9.830;2022-09-09T16:05:05;20.00;73.30
21635;DHT22;10979;48.306;9.830;2022-09-09T16:07:31;19.90;74.20
21635;DHT22;10979;48.306;9.830;2022-09-09T16:09:56;19.80;74.20
21635;DHT22;10979;48.306;9.830;2022-09-09T16:12:22;19.80;75.00
21635;DHT22;10979;48.306;9.830;2022-09-09T16:14:48;19.50;76.50
21635;DHT22;10979;48.306;9.830;2022-09-09T16:17:13;19.30;78.70
21635;DHT22;10979;48.306;9.830;2022-09-09T16:19:40;19.10;79.30
21635;DHT22;10979;48.306;9.830;2022-09-09T16:22:06;18.90;80.30
21635;DHT22;10979;48.306;9.830;2022-09-09T16:24:32;18.80;83.10
21635;DHT22;10979;48.306;9.830;2022-09-09T16:26:58;18.80;82.40
21635;DHT22;10979;48.306;9.830;2022-09-09T16:29:24;18.90;80.60
21635;DHT22;10979;48.306;9.830;2022-09-09T16:31:51;19.20;79.50
21635;DHT22;10979;48.306;9.830;2022-09-09T16:34:17;19.40;77.70
21635;DHT22;10979;48.306;9.830;2022-09-09T16:36:45;19.50;77.80
21635;DHT22;10979;48.306;9.830;2022-09-09T16:39:16;19.50;80.80
21635;DHT22;10979;48.306;9.830;2022-09-09T16:41:43;19.50;84.10
21635;DHT22;10979;48.306;9.830;2022-09-09T16:44:11;19.30;87.70
21635;DHT22;10979;48.306;9.830;2022-09-09T16:46:39;18.70;90.00
21635;DHT22;10979;48.306;9.830;2022-09-09T16:49:08;18.10;89.60
21635;DHT22;10979;48.306;9.830;2022-09-09T16:51:40;17.90;90.00
21635;DHT22;10979;48.306;9.830;2022-09-09T16:54:07;17.90;91.20
21635;DHT22;10979;48.306;9.830;2022-09-09T16:56:35;17.80;91.70
21635;DHT22;10979;48.306;9.830;2022-09-09T16:59:07;17.70;92.40
21635;DHT22;10979;48.306;9.830;2022-09-09T17:01:35;17.50;92.60
21635;DHT22;10979;48.306;9.830;2022-09-09T17:04:08;17.50;92.90
21635;DHT22;10979;48.306;9.830;2022-09-09T17:06:34;17.20;93.50
21635;DHT22;10979;48.306;9.830;2022-09-09T17:09:02;17.00;94.10
21635;DHT22;10979;48.306;9.830;2022-09-09T17:11:29;16.90;94.50
21635;DHT22;10979;48.306;9.830;2022-09-09T17:13:55;16.80;95.60
21635;DHT22;10979;48.306;9.830;2022-09-09T17:16:23;16.70;95.90
21635;DHT22;10979;48.306;9.830;2022-09-09T17:18:50;16.50;96.70
21635;DHT22;10979;48.306;9.830;2022-09-09T17:21:18;16.40;97.50
21635;DHT22;10979;48.306;9.830;2022-09-09T17:23:44;16.20;97.30
21635;DHT22;10979;48.306;9.830;2022-09-09T17:26:13;16.10;97.50
21635;DHT22;10979;48.306;9.830;2022-09-09T17:28:39;16.10;97.10
21635;DHT22;10979;48.306;9.830;2022-09-09T17:31:07;16.10;97.40
21635;DHT22;10979;48.306;9.830;2022-09-09T17:33:34;15.90;97.70
21635;DHT22;10979;48.306;9.830;2022-09-09T17:38:33;15.50;98.00